Frankston, Victoria

3:15 AM AEST on September 30, 2016 (GMT +1000)
Frankston South | | Change Station

Elev 190 ft 38.16 °S, 145.12 °E | Updated 35 seconds ago

Mostly Cloudy
Mostly Cloudy
46.9 °F
Feels Like 44 °F
N
6.3
Wind Variable Wind from ESE
Gusts 9.2 mph

Today
High -- | Low -- °F
--% Chance of Precip.
Yesterday
High -- | Low -- °F
Precip. -- in
Pressure 29.18 in
Visibility 6.2 miles
Clouds Scattered Clouds 2000 ft
Scattered Clouds 2600 ft
Mostly Cloudy 3500 ft
Windchill 44 °F
Dew Point 44 °F
Humidity 90%
Rainfall 0.17 in
Snow Depth Not available.
5:56 AM 6:23 PM
Waning Crescent, 2% visible
METAR YMEN 291700Z AUTO 02008KT 9999 // SCT020 SCT026 BKN035 10/09 Q0988
Pressure 29.18 in
Visibility 6.2 miles
Clouds Scattered Clouds 2000 ft
Scattered Clouds 2600 ft
Mostly Cloudy 3500 ft
Windchill 44 °F
Dew Point 44 °F
Humidity 90%
Rainfall 0.17 in
Snow Depth Not available.
5:56 AM 6:23 PM
Waning Crescent, 2% visible
METAR YMEN 291700Z AUTO 02008KT 9999 // SCT020 SCT026 BKN035 10/09 Q0988

10-Day Weather Forecast

Almanac

Astronomy

Sep. 30, 2016 Rise Set
Actual Time
Civil Twilight
Nautical Twilight
Astronomical Twilight
Moon
Length of Visible Light
Length of Day
Tomorrow will be .
, % of the Moon is Illuminated

Today's Extremes

Country Highs Country Lows

Community

WunderPhotos

Upload Photos

1,942,522 photos uploaded!

WunderBlog® & News

Nearby

Air Quality

  Air Quality AQ Index Pollutant
Not available.

Snow Depth

Station Depth Elevation

Earthquake Activity

City Distance Mag. Time & Date
Minimum magnitude displayed is 2.5.

Coastal Water Temperatures

Place Temperature

Stations

Nearby Weather Stations

Station Location Temp. Windchill Dew Point Humidity Wind Precip. Elev Updated Type